Flight Track Log - Related Links

Times and Time Zones

All times are in EDT time to prevent confusion due to time zone crossing. See the N635PG flight status page for this flight to view local times or setup timezone preferences in your user account.

Time Position Orientation Groundspeed Altitude Reporting Facility
EDT Latitude Longitude Course Direction KTS MPH feet Rate Location/Type
Sat 08:25:52 AM 26.5347 -79.1369 251° West 191 220 5,000  Level Miami Center
Sat 08:26:52 AM 26.5317 -79.1997 267° West 196 226 5,000  Level Miami Center
Sat 08:27:52 AM 26.5286 -79.2622 267° West 202 232 5,000 50 Level Miami Center
Sat 08:28:00 AM 26.5522 -78.7165 251° West  Level FlightAware Approximate
Sat 08:28:52 AM 26.5253 -79.3250 267° West 202 232 5,100  Level Miami Center
Sat 08:29:52 AM 26.5200 -79.3875 265° West 202 232 5,100  Level Miami Center
Sat 08:30:52 AM 26.5169 -79.4431 266° West 202 232 5,100  Level Miami Center
Sat 08:31:52 AM 26.5136 -79.5128 267° West 202 232 5,100 -50 Level Miami Center
Sat 08:32:52 AM 26.5106 -79.5683 266° West 202 232 5,000 -400 Descending Miami Center
Sat 08:33:52 AM 26.5072 -79.6425 267° West 212 244 4,300 -500 Descending Miami Center
Sat 08:34:52 AM 26.5017 -79.7028 264° West 217 250 4,000 -150 Descending Miami Center
Sat 08:35:52 AM 26.4919 -79.7722 261° West 217 250 4,000  Level Miami Center
Sat 08:36:52 AM 26.4619 -79.8156 232° Southwest 199 229 4,000  Level Miami Center
Sat 08:37:52 AM 26.4233 -79.8656 229° Southwest 204 235 4,000 -217 Level Miami Center
Sat 08:39:10 AM 26.3781 -79.9294 232° Southwest 199 229 3,500 -432 Descending Miami Center
Sat 08:40:11 AM 26.3394 -79.9817 230° Southwest 204 235 3,000 -295 Descending Miami Center
Sat 08:41:12 AM 26.3050 -80.0247 228° Southwest 190 219 2,900 -541 Descending Miami Center
Sat 08:42:13 AM 26.2664 -80.0772 231° Southwest 212 244 1,900 -443 Descending Miami Center
Sat 08:43:14 AM 26.2403 -80.1272 240° Southwest 180 207 2,000 -98 Climbing Miami Center
Sat 08:44:15 AM 26.2328 -80.1781 261° West 156 180 1,700 -639 Descending Miami Center
Sat 08:45:16 AM 26.2156 -80.2053 235° Southwest 119 137 700 -984 Descending Miami Center
Sat 08:47:00 AM 26.1973 -80.1707 222° Southwest  Level Estimated
Sat 08:54:00 AM 26.1973 -80.1707 222° Southwest  Level Estimated

Login

Don't have an account? Register now (free) for customized features, flight alerts, and more!